Time;durP1;ratioP1;P1;durP2;ratioP2;P2;SDS_P1;SDS_P2;PMS_P1;PMS_P2;Temp;Humidity;BMP_temperature;BMP_pressure;BME280_temperature;BME280_humidity;BME280_pressure;Samples;Min_cycle;Max_cycle;Signal;HPM_P1;HPM_P2
2023/04/25 00:01:47;;;;;;;10.07;2.70;;;;;;;;;;5092296;28;20605;-75
2023/04/25 00:04:13;;;;;;;11.32;2.95;;;;;;;;;;5094431;28;20058;-75
2023/04/25 00:06:39;;;;;;;11.75;3.50;;;;;;;;;;5092725;28;20032;-75
2023/04/25 00:09:10;;;;;;;10.00;3.40;;;;;;;;;;5074275;28;20047;-75
2023/04/25 00:11:37;;;;;;;15.18;3.25;;;;;;;;;;5075730;28;20052;-75
2023/04/25 00:14:03;;;;;;;14.02;4.05;;;;;;;;;;5089071;28;20053;-75
2023/04/25 00:16:33;;;;;;;14.50;3.47;;;;;;;;;;5073054;28;20040;-75
2023/04/25 00:18:59;;;;;;;16.13;4.18;;;;;;;;;;5073880;28;20052;-75
2023/04/25 00:21:25;;;;;;;14.60;3.97;;;;;;;;;;5075518;28;22069;-75
2023/04/25 00:23:53;;;;;;;16.42;3.42;;;;;;;;;;5090485;28;20465;-75
2023/04/25 00:26:20;;;;;;;14.15;3.50;;;;;;;;;;5082428;28;20044;-75
2023/04/25 00:28:47;;;;;;;13.98;3.75;;;;;;;;;;5082489;28;20076;-75
2023/04/25 00:31:13;;;;;;;17.70;4.38;;;;;;;;;;5084983;28;20101;-75
2023/04/25 00:33:39;;;;;;;15.35;3.58;;;;;;;;;;5073413;28;20139;-75
2023/04/25 00:36:06;;;;;;;11.82;3.55;;;;;;;;;;5073658;28;20399;-75
2023/04/25 00:38:32;;;;;;;13.40;3.60;;;;;;;;;;5073498;28;20479;-75
2023/04/25 00:40:58;;;;;;;11.35;3.13;;;;;;;;;;5091800;28;20040;-75
2023/04/25 00:43:27;;;;;;;8.88;2.90;;;;;;;;;;5087412;28;20414;-75
2023/04/25 00:45:53;;;;;;;10.40;2.88;;;;;;;;;;5073586;28;20056;-75
2023/04/25 00:48:22;;;;;;;13.15;3.00;;;;;;;;;;5076657;28;20407;-75
2023/04/25 00:50:53;;;;;;;11.20;3.67;;;;;;;;;;5076853;28;20080;-75
2023/04/25 00:53:20;;;;;;;10.15;3.00;;;;;;;;;;5073531;28;20097;-75
2023/04/25 00:55:46;;;;;;;9.23;3.08;;;;;;;;;;5073610;28;20036;-75
2023/04/25 00:58:13;;;;;;;14.75;3.20;;;;;;;;;;5084631;28;20490;-75
2023/04/25 01:00:40;;;;;;;11.98;3.13;;;;;;;;;;5084178;28;20059;-75
2023/04/25 01:03:06;;;;;;;12.82;3.08;;;;;;;;;;5083638;28;20037;-75
2023/04/25 01:05:35;;;;;;;15.93;3.58;;;;;;;;;;5073199;28;20047;-75
2023/04/25 01:08:01;;;;;;;10.38;3.45;;;;;;;;;;5091337;28;20482;-75
2023/04/25 01:10:27;;;;;;;12.68;3.25;;;;;;;;;;5089340;28;20425;-75
2023/04/25 01:12:53;;;;;;;15.32;3.58;;;;;;;;;;5081331;28;20062;-75
2023/04/25 01:15:20;;;;;;;10.10;3.53;;;;;;;;;;5077546;28;20078;-75
2023/04/25 01:17:46;;;;;;;11.35;2.63;;;;;;;;;;5097093;28;20521;-75
2023/04/25 01:20:12;;;;;;;9.82;2.88;;;;;;;;;;5073660;28;20487;-75
2023/04/25 01:22:38;;;;;;;14.90;2.83;;;;;;;;;;5090938;28;20123;-75
2023/04/25 01:25:05;;;;;;;11.77;3.65;;;;;;;;;;5073505;28;20052;-75
2023/04/25 01:27:31;;;;;;;9.68;3.08;;;;;;;;;;5069350;28;20048;-75
2023/04/25 01:29:57;;;;;;;13.27;3.13;;;;;;;;;;5073328;28;20045;-75
2023/04/25 01:32:24;;;;;;;10.60;2.72;;;;;;;;;;5072772;28;20045;-75
2023/04/25 01:34:50;;;;;;;10.80;2.67;;;;;;;;;;5073244;28;20040;-74
2023/04/25 01:37:17;;;;;;;13.90;3.20;;;;;;;;;;5073200;28;20045;-75
2023/04/25 01:39:44;;;;;;;11.98;3.10;;;;;;;;;;5075246;28;20086;-74
2023/04/25 01:42:10;;;;;;;8.02;2.58;;;;;;;;;;5093592;28;20044;-75
2023/04/25 01:44:36;;;;;;;16.25;3.20;;;;;;;;;;5093299;28;20067;-75
2023/04/25 01:47:02;;;;;;;9.65;3.25;;;;;;;;;;5077891;28;20037;-75
2023/04/25 01:49:28;;;;;;;12.95;3.67;;;;;;;;;;5080805;28;20093;-75
2023/04/25 01:51:54;;;;;;;12.23;3.42;;;;;;;;;;5093192;28;20048;-75
2023/04/25 01:54:20;;;;;;;13.90;3.95;;;;;;;;;;5093259;28;20449;-75
2023/04/25 01:56:50;;;;;;;10.45;3.00;;;;;;;;;;5094541;28;20048;-75
2023/04/25 01:59:17;;;;;;;9.10;2.85;;;;;;;;;;5059062;28;20052;-75
2023/04/25 02:01:43;;;;;;;10.30;2.55;;;;;;;;;;5072990;28;20123;-75
2023/04/25 02:04:09;;;;;;;11.25;2.92;;;;;;;;;;5072986;28;20124;-75
2023/04/25 02:06:35;;;;;;;11.18;2.90;;;;;;;;;;5073386;28;20045;-75
2023/04/25 02:09:03;;;;;;;7.78;2.55;;;;;;;;;;5077443;28;20509;-75
2023/04/25 02:11:29;;;;;;;6.25;2.47;;;;;;;;;;5092972;28;20051;-75
2023/04/25 02:13:55;;;;;;;9.82;2.25;;;;;;;;;;5089172;28;20045;-75
2023/04/25 02:16:22;;;;;;;7.38;2.63;;;;;;;;;;5080403;28;20040;-75
2023/04/25 02:18:48;;;;;;;7.85;2.40;;;;;;;;;;5091565;28;20123;-75
2023/04/25 02:21:15;;;;;;;8.00;2.40;;;;;;;;;;5096546;28;20405;-75
2023/04/25 02:23:41;;;;;;;7.45;2.42;;;;;;;;;;5078898;28;20055;-75
2023/04/25 02:26:07;;;;;;;10.60;2.45;;;;;;;;;;5096967;28;20047;-75
2023/04/25 02:28:33;;;;;;;7.53;2.33;;;;;;;;;;5094184;28;20044;-75
2023/04/25 02:30:59;;;;;;;7.30;2.47;;;;;;;;;;5083160;28;20044;-73
2023/04/25 02:33:25;;;;;;;7.13;2.15;;;;;;;;;;5087227;28;20112;-73
2023/04/25 02:35:51;;;;;;;8.55;2.70;;;;;;;;;;5091724;28;20036;-73
2023/04/25 02:38:17;;;;;;;14.63;2.42;;;;;;;;;;5095682;28;20494;-74
2023/04/25 02:40:43;;;;;;;6.95;2.20;;;;;;;;;;5085850;28;20375;-74
2023/04/25 02:43:09;;;;;;;7.85;2.55;;;;;;;;;;5084364;28;20040;-73
2023/04/25 02:45:36;;;;;;;9.00;2.60;;;;;;;;;;5095964;28;20044;-74
2023/04/25 02:48:02;;;;;;;14.25;3.05;;;;;;;;;;5060564;22;20085;-84
2023/04/25 02:50:28;;;;;;;7.05;2.50;;;;;;;;;;5026401;28;20561;-84
2023/04/25 02:52:54;;;;;;;10.68;3.08;;;;;;;;;;5019629;28;20523;-84
2023/04/25 02:55:22;;;;;;;9.38;2.78;;;;;;;;;;5011195;28;20050;-84
2023/04/25 02:57:48;;;;;;;8.75;2.83;;;;;;;;;;5015044;28;20077;-84
2023/04/25 03:00:14;;;;;;;8.63;2.58;;;;;;;;;;5029072;28;20049;-84
2023/04/25 03:02:40;;;;;;;10.32;2.67;;;;;;;;;;5032633;28;20049;-84
2023/04/25 03:05:07;;;;;;;9.05;2.75;;;;;;;;;;5030642;28;20050;-84
2023/04/25 03:07:33;;;;;;;11.48;2.78;;;;;;;;;;5012626;28;20096;-84
2023/04/25 03:09:59;;;;;;;13.60;3.17;;;;;;;;;;5010796;28;20068;-85
2023/04/25 03:12:25;;;;;;;7.45;2.50;;;;;;;;;;5019418;28;20667;-84
2023/04/25 03:14:51;;;;;;;11.45;2.85;;;;;;;;;;5030125;28;20096;-84
2023/04/25 03:17:17;;;;;;;10.80;2.60;;;;;;;;;;5032001;28;20037;-84
2023/04/25 03:19:43;;;;;;;9.95;2.75;;;;;;;;;;5030177;28;20095;-84
2023/04/25 03:22:09;;;;;;;7.55;2.58;;;;;;;;;;5029123;28;20045;-84
2023/04/25 03:24:37;;;;;;;9.15;2.40;;;;;;;;;;5011097;28;20046;-84
2023/04/25 03:27:03;;;;;;;10.27;2.75;;;;;;;;;;5017435;28;20081;-84
2023/04/25 03:29:29;;;;;;;12.77;3.47;;;;;;;;;;5029277;28;20774;-84
2023/04/25 03:31:55;;;;;;;10.45;3.10;;;;;;;;;;5031574;28;20375;-84
2023/04/25 03:34:21;;;;;;;11.20;2.83;;;;;;;;;;5029060;28;20604;-85
2023/04/25 03:36:47;;;;;;;9.45;2.20;;;;;;;;;;5025061;28;20466;-85
2023/04/25 03:39:13;;;;;;;10.68;2.80;;;;;;;;;;5028288;28;20064;-85
2023/04/25 03:41:39;;;;;;;6.00;2.60;;;;;;;;;;5026546;28;20046;-84
2023/04/25 03:44:05;;;;;;;10.98;2.70;;;;;;;;;;5030739;28;20038;-85
2023/04/25 03:46:31;;;;;;;11.70;3.08;;;;;;;;;;5030108;28;20042;-84
2023/04/25 03:48:59;;;;;;;12.32;2.83;;;;;;;;;;5030606;28;20065;-85
2023/04/25 03:51:25;;;;;;;10.98;3.20;;;;;;;;;;5032385;28;20283;-85
2023/04/25 03:53:52;;;;;;;11.15;3.33;;;;;;;;;;5031629;28;20451;-85
2023/04/25 03:56:18;;;;;;;7.97;2.85;;;;;;;;;;5029054;28;20038;-84
2023/04/25 03:58:44;;;;;;;6.65;2.95;;;;;;;;;;5021025;28;20394;-84
2023/04/25 04:01:10;;;;;;;7.15;2.80;;;;;;;;;;5030071;28;20041;-85
2023/04/25 04:03:37;;;;;;;10.00;2.88;;;;;;;;;;5030759;28;20067;-85
2023/04/25 04:06:04;;;;;;;11.98;3.10;;;;;;;;;;5031678;28;20041;-84
2023/04/25 04:08:30;;;;;;;11.15;2.60;;;;;;;;;;5030806;28;20037;-84
2023/04/25 04:10:57;;;;;;;10.13;2.70;;;;;;;;;;5030651;28;20096;-85
2023/04/25 04:13:23;;;;;;;9.00;2.60;;;;;;;;;;5028731;28;20398;-84
2023/04/25 04:15:49;;;;;;;9.18;2.88;;;;;;;;;;5030551;28;20353;-85
2023/04/25 04:18:15;;;;;;;9.02;2.15;;;;;;;;;;5030709;28;20040;-84
2023/04/25 04:20:41;;;;;;;8.55;2.30;;;;;;;;;;5030437;28;20080;-85
2023/04/25 04:23:07;;;;;;;7.05;2.75;;;;;;;;;;5028906;28;20526;-85
2023/04/25 04:25:34;;;;;;;6.47;2.60;;;;;;;;;;5029799;28;20062;-85
2023/04/25 04:28:00;;;;;;;9.63;2.40;;;;;;;;;;5030457;28;20041;-84
2023/04/25 04:30:29;;;;;;;12.75;3.47;;;;;;;;;;5024387;28;20518;-84
2023/04/25 04:32:56;;;;;;;8.38;2.42;;;;;;;;;;5013861;28;20049;-84
2023/04/25 04:35:23;;;;;;;6.40;2.55;;;;;;;;;;5030315;28;20125;-85
2023/04/25 04:37:49;;;;;;;10.93;3.00;;;;;;;;;;5028087;28;20073;-84
2023/04/25 04:40:16;;;;;;;7.88;2.67;;;;;;;;;;5029541;28;20095;-84
2023/04/25 04:42:42;;;;;;;5.75;2.40;;;;;;;;;;5028921;28;20037;-86
2023/04/25 04:45:09;;;;;;;12.55;3.03;;;;;;;;;;5025951;28;20038;-85
2023/04/25 04:47:36;;;;;;;6.05;2.22;;;;;;;;;;5026341;28;20057;-84
2023/04/25 04:50:03;;;;;;;8.88;2.67;;;;;;;;;;5027285;28;20110;-85
2023/04/25 04:52:30;;;;;;;9.38;2.55;;;;;;;;;;5025232;28;20049;-84
2023/04/25 04:54:56;;;;;;;9.32;2.83;;;;;;;;;;5021961;28;20642;-85
2023/04/25 04:57:22;;;;;;;8.20;2.22;;;;;;;;;;5027809;28;20044;-85
2023/04/25 04:59:49;;;;;;;8.98;2.72;;;;;;;;;;5030181;28;20229;-84
2023/04/25 05:02:15;;;;;;;8.93;2.28;;;;;;;;;;5030703;28;20037;-84
2023/04/25 05:04:41;;;;;;;10.38;2.40;;;;;;;;;;5030749;28;20041;-85
2023/04/25 05:07:07;;;;;;;7.15;2.60;;;;;;;;;;5027490;28;20041;-84
2023/04/25 05:09:34;;;;;;;7.18;2.28;;;;;;;;;;5027967;28;20048;-85
2023/04/25 05:12:00;;;;;;;8.25;2.45;;;;;;;;;;5011157;28;20084;-85
2023/04/25 05:14:27;;;;;;;6.78;2.88;;;;;;;;;;5029676;28;20037;-85
2023/04/25 05:16:53;;;;;;;8.45;2.47;;;;;;;;;;5028201;28;20045;-84
2023/04/25 05:19:19;;;;;;;5.43;2.00;;;;;;;;;;5028147;28;20397;-84
2023/04/25 05:21:45;;;;;;;11.32;2.53;;;;;;;;;;5026358;28;20041;-85
2023/04/25 05:24:11;;;;;;;12.95;3.40;;;;;;;;;;5029018;28;20743;-85
2023/04/25 05:26:37;;;;;;;13.70;2.60;;;;;;;;;;5028156;28;20049;-84
2023/04/25 05:29:04;;;;;;;6.53;2.40;;;;;;;;;;5027147;28;20041;-85
2023/04/25 05:31:30;;;;;;;7.03;2.55;;;;;;;;;;5027881;28;20038;-85
2023/04/25 05:33:56;;;;;;;4.53;2.08;;;;;;;;;;5028511;28;20049;-84
2023/04/25 05:36:22;;;;;;;5.63;2.47;;;;;;;;;;5028343;28;20073;-84
2023/04/25 05:38:48;;;;;;;6.50;1.90;;;;;;;;;;5010649;28;20037;-84
2023/04/25 05:41:15;;;;;;;6.65;2.00;;;;;;;;;;5010587;28;20041;-85
2023/04/25 05:43:46;;;;;;;9.45;1.90;;;;;;;;;;5027893;28;20045;-84
2023/04/25 05:46:13;;;;;;;5.13;1.80;;;;;;;;;;5029033;28;20045;-83
2023/04/25 05:48:39;;;;;;;3.78;1.60;;;;;;;;;;5031206;28;20168;-84
2023/04/25 05:51:05;;;;;;;6.80;1.60;;;;;;;;;;5034399;28;20406;-83
2023/04/25 05:53:31;;;;;;;7.05;2.17;;;;;;;;;;5034966;28;20045;-84
2023/04/25 05:55:58;;;;;;;3.38;1.63;;;;;;;;;;5034010;28;20524;-84
2023/04/25 05:58:24;;;;;;;4.70;1.80;;;;;;;;;;5033111;28;20498;-84
2023/04/25 06:00:50;;;;;;;5.00;2.08;;;;;;;;;;5033811;28;20116;-84
2023/04/25 06:03:16;;;;;;;6.05;2.42;;;;;;;;;;5030515;28;20397;-86
2023/04/25 06:05:42;;;;;;;7.05;2.33;;;;;;;;;;5027214;28;20397;-84
2023/04/25 06:08:09;;;;;;;10.10;2.42;;;;;;;;;;5028058;28;20533;-83
2023/04/25 06:10:35;;;;;;;7.43;2.22;;;;;;;;;;5024855;28;20108;-83
2023/04/25 06:13:02;;;;;;;7.88;2.45;;;;;;;;;;5028876;28;20405;-84
2023/04/25 06:15:28;;;;;;;8.55;2.30;;;;;;;;;;5017635;28;20045;-83
2023/04/25 06:17:54;;;;;;;7.50;2.38;;;;;;;;;;5016483;28;20038;-83
2023/04/25 06:20:22;;;;;;;6.25;1.95;;;;;;;;;;5033762;28;20052;-84
2023/04/25 06:22:49;;;;;;;7.97;2.10;;;;;;;;;;5016906;28;20049;-83
2023/04/25 06:25:16;;;;;;;8.55;2.20;;;;;;;;;;5034550;28;20049;-83
2023/04/25 06:27:42;;;;;;;10.48;2.42;;;;;;;;;;5032784;28;20133;-83
2023/04/25 06:30:08;;;;;;;9.77;2.58;;;;;;;;;;5034850;28;20044;-83
2023/04/25 06:32:34;;;;;;;12.02;2.50;;;;;;;;;;5024556;28;20037;-83
2023/04/25 06:35:01;;;;;;;5.88;2.50;;;;;;;;;;5033015;28;20116;-84
2023/04/25 06:37:27;;;;;;;6.40;2.03;;;;;;;;;;5033365;28;20041;-85
2023/04/25 06:39:53;;;;;;;6.38;2.33;;;;;;;;;;5033174;28;20071;-85
2023/04/25 06:42:19;;;;;;;4.35;1.90;;;;;;;;;;5035775;28;20049;-84
2023/04/25 06:44:45;;;;;;;5.18;1.88;;;;;;;;;;5034095;28;20052;-84
2023/04/25 06:47:11;;;;;;;4.75;1.77;;;;;;;;;;5034072;28;20049;-84
2023/04/25 06:49:37;;;;;;;4.07;1.65;;;;;;;;;;5030728;28;20065;-84
2023/04/25 06:52:03;;;;;;;4.78;1.70;;;;;;;;;;5023390;28;20041;-84
2023/04/25 06:54:29;;;;;;;5.13;1.90;;;;;;;;;;5035266;28;20053;-84
2023/04/25 06:56:56;;;;;;;2.83;1.60;;;;;;;;;;5018610;28;20037;-84
2023/04/25 06:59:23;;;;;;;5.93;1.63;;;;;;;;;;5036026;28;20074;-84
2023/04/25 07:01:49;;;;;;;2.30;1.50;;;;;;;;;;5032469;28;20493;-84
2023/04/25 07:04:15;;;;;;;4.57;1.70;;;;;;;;;;5032038;28;20413;-84
2023/04/25 07:06:42;;;;;;;5.13;1.60;;;;;;;;;;5013207;28;20470;-84
2023/04/25 07:09:11;;;;;;;3.10;1.90;;;;;;;;;;5030429;28;20603;-84
2023/04/25 07:11:38;;;;;;;4.30;1.60;;;;;;;;;;5028405;28;20049;-84
2023/04/25 07:14:04;;;;;;;4.85;1.92;;;;;;;;;;5031009;28;20029;-84
2023/04/25 07:16:30;;;;;;;3.67;1.70;;;;;;;;;;5028278;28;20444;-84
2023/04/25 07:18:56;;;;;;;8.23;2.40;;;;;;;;;;5028816;28;20037;-84
2023/04/25 07:21:22;;;;;;;5.28;2.10;;;;;;;;;;5029171;28;20116;-85
2023/04/25 07:23:48;;;;;;;8.00;2.28;;;;;;;;;;5030108;28;20046;-85
2023/04/25 07:26:14;;;;;;;7.32;2.10;;;;;;;;;;5031976;28;20052;-86
2023/04/25 07:28:40;;;;;;;7.75;2.20;;;;;;;;;;5031587;28;20038;-85
2023/04/25 07:31:06;;;;;;;7.25;1.92;;;;;;;;;;5013898;28;20045;-85
2023/04/25 07:33:32;;;;;;;5.78;2.10;;;;;;;;;;5029652;28;20041;-85
2023/04/25 07:35:58;;;;;;;8.63;2.17;;;;;;;;;;5010398;28;20088;-85
2023/04/25 07:38:27;;;;;;;7.18;2.28;;;;;;;;;;5029803;28;20041;-85
2023/04/25 07:40:53;;;;;;;7.55;2.28;;;;;;;;;;5013868;28;20048;-85
2023/04/25 07:43:19;;;;;;;6.20;2.28;;;;;;;;;;5029401;28;20087;-85
2023/04/25 07:45:46;;;;;;;8.45;2.30;;;;;;;;;;5031685;28;20045;-85
2023/04/25 07:48:18;;;;;;;6.28;2.20;;;;;;;;;;5012881;28;20089;-85
2023/04/25 07:50:45;;;;;;;5.28;2.15;;;;;;;;;;5030619;28;20041;-84
2023/04/25 07:53:11;;;;;;;5.97;2.13;;;;;;;;;;5029229;28;20479;-85
2023/04/25 07:55:39;;;;;;;2.67;1.70;;;;;;;;;;5030360;28;20040;-85
2023/04/25 07:58:06;;;;;;;6.00;1.90;;;;;;;;;;5029813;28;20049;-87
2023/04/25 08:00:32;;;;;;;3.65;1.60;;;;;;;;;;5026850;28;20049;-85
2023/04/25 08:02:58;;;;;;;3.13;1.45;;;;;;;;;;5024435;28;20041;-85
2023/04/25 08:05:24;;;;;;;3.03;1.60;;;;;;;;;;5021978;28;20030;-85
2023/04/25 08:07:50;;;;;;;5.00;1.77;;;;;;;;;;5030447;28;20068;-85
2023/04/25 08:10:16;;;;;;;3.67;1.77;;;;;;;;;;5028876;28;20128;-85
2023/04/25 08:12:42;;;;;;;5.07;1.92;;;;;;;;;;5027041;28;20041;-85
2023/04/25 08:15:09;;;;;;;3.15;1.60;;;;;;;;;;5030003;28;20120;-85
2023/04/25 08:17:35;;;;;;;4.05;1.63;;;;;;;;;;5029137;28;20042;-85
2023/04/25 08:20:05;;;;;;;6.68;1.80;;;;;;;;;;5029258;28;20184;-85
2023/04/25 08:22:31;;;;;;;6.43;2.00;;;;;;;;;;5030135;28;20082;-85
2023/04/25 08:24:57;;;;;;;6.07;1.90;;;;;;;;;;5030038;28;20419;-84
2023/04/25 08:27:23;;;;;;;8.05;2.67;;;;;;;;;;5023704;28;20046;-85
2023/04/25 08:29:50;;;;;;;7.97;2.50;;;;;;;;;;5024945;28;20057;-85
2023/04/25 08:32:16;;;;;;;11.18;2.58;;;;;;;;;;5027252;28;20116;-85
2023/04/25 08:34:43;;;;;;;8.02;2.38;;;;;;;;;;5011334;28;20049;-85
2023/04/25 08:37:10;;;;;;;9.13;2.60;;;;;;;;;;5027630;28;20392;-85
2023/04/25 08:39:39;;;;;;;9.15;3.25;;;;;;;;;;5028316;28;20430;-84
2023/04/25 08:42:09;;;;;;;9.68;2.67;;;;;;;;;;5029738;28;20045;-85
2023/04/25 08:44:35;;;;;;;7.65;2.20;;;;;;;;;;5025639;28;20037;-86
2023/04/25 08:47:04;;;;;;;8.70;2.38;;;;;;;;;;5021987;28;20103;-85
2023/04/25 08:49:34;;;;;;;7.05;1.92;;;;;;;;;;5028727;28;20041;-85
2023/04/25 08:52:07;;;;;;;5.32;2.35;;;;;;;;;;5029352;28;20112;-85
2023/04/25 08:54:33;;;;;;;5.82;2.13;;;;;;;;;;5030494;28;20052;-85
2023/04/25 08:57:01;;;;;;;5.22;2.20;;;;;;;;;;5030054;28;20048;-85
2023/04/25 08:59:28;;;;;;;4.88;2.22;;;;;;;;;;5030889;28;20113;-85
2023/04/25 09:01:55;;;;;;;7.10;2.50;;;;;;;;;;5011885;28;20092;-85
2023/04/25 09:04:21;;;;;;;5.88;2.58;;;;;;;;;;5011637;28;20125;-85
2023/04/25 09:06:48;;;;;;;6.97;2.10;;;;;;;;;;5027520;28;20514;-85
2023/04/25 09:09:14;;;;;;;7.45;2.00;;;;;;;;;;5025187;28;20069;-85
2023/04/25 09:11:41;;;;;;;6.97;2.38;;;;;;;;;;5022822;28;20052;-85
2023/04/25 09:14:15;;;;;;;6.18;2.10;;;;;;;;;;5025700;28;20080;-86
2023/04/25 09:16:56;;;;;;;10.05;2.75;;;;;;;;;;5029267;28;20438;-86
2023/04/25 09:19:33;;;;;;;9.82;2.72;;;;;;;;;;5029520;28;20116;-86
2023/04/25 09:21:59;;;;;;;10.00;2.35;;;;;;;;;;5029295;28;20471;-86
2023/04/25 09:24:32;;;;;;;8.40;2.45;;;;;;;;;;5015662;28;20605;-86
2023/04/25 09:26:58;;;;;;;10.23;2.65;;;;;;;;;;5039906;28;20036;-86
2023/04/25 09:29:34;;;;;;;7.40;2.42;;;;;;;;;;5035872;28;20029;-86
2023/04/25 09:32:15;;;;;;;7.22;2.30;;;;;;;;;;5049322;28;20041;-86
2023/04/25 09:34:42;;;;;;;10.63;2.65;;;;;;;;;;5025216;28;20046;-87
2023/04/25 09:37:10;;;;;;;6.28;2.33;;;;;;;;;;5026629;28;20045;-86
2023/04/25 09:39:37;;;;;;;5.70;2.50;;;;;;;;;;5030316;28;20059;-86
2023/04/25 09:42:04;;;;;;;7.05;2.45;;;;;;;;;;5048037;28;20037;-86
2023/04/25 09:44:30;;;;;;;6.50;2.25;;;;;;;;;;5027581;28;20441;-87
2023/04/25 09:46:56;;;;;;;6.60;1.90;;;;;;;;;;5026827;28;20145;-85
2023/04/25 09:49:23;;;;;;;6.82;2.08;;;;;;;;;;5049458;28;20063;-86
2023/04/25 09:51:56;;;;;;;6.90;1.80;;;;;;;;;;5032065;28;20574;-88
2023/04/25 09:54:23;;;;;;;4.50;2.10;;;;;;;;;;5029028;28;20517;-87
2023/04/25 09:56:52;;;;;;;5.43;1.90;;;;;;;;;;5046735;28;20044;-86
2023/04/25 09:59:20;;;;;;;6.95;1.90;;;;;;;;;;5027646;28;20171;-86
2023/04/25 10:01:46;;;;;;;6.07;1.90;;;;;;;;;;5028595;28;20090;-86
2023/04/25 10:04:13;;;;;;;6.57;2.88;;;;;;;;;;5031208;28;20115;-86
2023/04/25 10:06:39;;;;;;;7.25;2.33;;;;;;;;;;5048231;28;20029;-87
2023/04/25 10:09:08;;;;;;;8.13;2.15;;;;;;;;;;5031599;28;20044;-85
2023/04/25 10:11:35;;;;;;;11.30;2.65;;;;;;;;;;5046529;28;20043;-86
2023/04/25 10:14:01;;;;;;;9.27;2.20;;;;;;;;;;5049362;28;20120;-86
2023/04/25 10:16:28;;;;;;;6.38;1.88;;;;;;;;;;5013337;28;20091;-85
2023/04/25 10:18:54;;;;;;;6.60;2.20;;;;;;;;;;5029899;28;20037;-86
2023/04/25 10:21:20;;;;;;;7.60;2.63;;;;;;;;;;5047854;28;20048;-87
2023/04/25 10:23:46;;;;;;;9.65;2.30;;;;;;;;;;5047963;28;20037;-87
2023/04/25 10:26:14;;;;;;;6.72;2.10;;;;;;;;;;5030743;28;20098;-85
2023/04/25 10:29:03;;;;;;;7.55;2.53;;;;;;;;;;5049932;28;20694;-87
2023/04/25 10:31:32;;;;;;;8.35;2.10;;;;;;;;;;5026468;28;20049;-87
2023/04/25 10:34:01;;;;;;;7.55;2.40;;;;;;;;;;5046090;28;20048;-86
2023/04/25 10:36:31;;;;;;;8.15;2.08;;;;;;;;;;5051830;28;20041;-87
2023/04/25 10:39:06;;;;;;;8.07;2.30;;;;;;;;;;5052089;28;20041;-88
2023/04/25 10:41:32;;;;;;;7.35;2.15;;;;;;;;;;5052051;28;20045;-86
2023/04/25 10:44:01;;;;;;;8.70;2.65;;;;;;;;;;5051534;28;20393;-87
2023/04/25 10:46:31;;;;;;;3.53;1.90;;;;;;;;;;5050553;28;20126;-87
2023/04/25 10:49:01;;;;;;;6.53;2.30;;;;;;;;;;5049880;28;20132;-86
2023/04/25 10:51:34;;;;;;;7.65;2.15;;;;;;;;;;5031664;28;20068;-86
2023/04/25 10:54:03;;;;;;;8.70;2.40;;;;;;;;;;5046482;28;20082;-86
2023/04/25 10:56:31;;;;;;;5.82;2.17;;;;;;;;;;5030416;28;20042;-86
2023/04/25 10:59:18;;;;;;;5.50;2.50;;;;;;;;;;5028617;28;20512;-86
2023/04/25 11:01:44;;;;;;;7.75;2.30;;;;;;;;;;5031226;28;20120;-86
2023/04/25 11:04:29;;;;;;;5.60;2.30;;;;;;;;;;5051070;28;20040;-86
2023/04/25 11:07:01;;;;;;;8.20;2.70;;;;;;;;;;5049836;28;20490;-86
2023/04/25 11:09:27;;;;;;;6.28;2.92;;;;;;;;;;5051329;28;20043;-87
2023/04/25 11:11:58;;;;;;;7.13;2.55;;;;;;;;;;5051123;28;20033;-86
2023/04/25 11:14:25;;;;;;;6.72;2.15;;;;;;;;;;5043634;28;20095;-87
2023/04/25 11:16:57;;;;;;;7.90;2.10;;;;;;;;;;5051320;28;20041;-87
2023/04/25 11:19:24;;;;;;;7.20;2.38;;;;;;;;;;5051816;28;20106;-87
2023/04/25 11:21:50;;;;;;;11.07;2.47;;;;;;;;;;5030247;28;20045;-87
2023/04/25 11:24:17;;;;;;;7.72;2.10;;;;;;;;;;5013983;28;20044;-87
2023/04/25 11:26:43;;;;;;;9.00;2.58;;;;;;;;;;5049358;28;20036;-87
2023/04/25 11:29:10;;;;;;;10.10;2.50;;;;;;;;;;5028905;28;20044;-87
2023/04/25 11:31:36;;;;;;;7.80;2.28;;;;;;;;;;5028068;28;20221;-87
2023/04/25 11:34:02;;;;;;;5.60;2.10;;;;;;;;;;5043138;28;20047;-87
2023/04/25 11:36:28;;;;;;;12.57;2.60;;;;;;;;;;5030497;28;20125;-87
2023/04/25 11:38:54;;;;;;;3.83;2.00;;;;;;;;;;5043387;28;20120;-88
2023/04/25 11:41:21;;;;;;;6.55;1.90;;;;;;;;;;5044995;28;20094;-87
2023/04/25 11:43:48;;;;;;;7.05;1.98;;;;;;;;;;5030622;28;20052;-88
2023/04/25 11:46:14;;;;;;;4.60;1.73;;;;;;;;;;5030595;28;20044;-87
2023/04/25 11:48:41;;;;;;;6.28;2.00;;;;;;;;;;5051534;28;20144;-87
2023/04/25 11:51:08;;;;;;;6.00;2.17;;;;;;;;;;5037016;28;20135;-87
2023/04/25 11:53:34;;;;;;;11.63;2.50;;;;;;;;;;5052725;28;20083;-87
2023/04/25 11:56:02;;;;;;;4.95;2.00;;;;;;;;;;5030816;28;20498;-87
2023/04/25 11:58:28;;;;;;;9.90;2.42;;;;;;;;;;5047724;28;20374;-87
2023/04/25 12:00:54;;;;;;;5.78;2.10;;;;;;;;;;5033058;28;20469;-87
2023/04/25 12:03:21;;;;;;;7.18;2.40;;;;;;;;;;5050613;28;20470;-88
2023/04/25 12:05:47;;;;;;;4.82;2.13;;;;;;;;;;5032661;28;20047;-87
2023/04/25 12:08:14;;;;;;;5.75;2.38;;;;;;;;;;5050145;28;20486;-87
2023/04/25 12:10:40;;;;;;;9.57;2.47;;;;;;;;;;5029138;28;20041;-87
2023/04/25 12:13:20;;;;;;;8.73;2.28;;;;;;;;;;5027762;28;20049;-86
2023/04/25 12:15:47;;;;;;;7.28;2.10;;;;;;;;;;5038718;28;20410;-88
2023/04/25 12:18:13;;;;;;;6.65;2.05;;;;;;;;;;5030411;28;20050;-87
2023/04/25 12:20:39;;;;;;;5.85;2.22;;;;;;;;;;5029282;28;20064;-87
2023/04/25 12:23:08;;;;;;;8.23;2.10;;;;;;;;;;5024900;28;20128;-87
2023/04/25 12:25:40;;;;;;;6.57;2.33;;;;;;;;;;5032025;28;20037;-87
2023/04/25 12:28:20;;;;;;;6.72;2.33;;;;;;;;;;5048098;28;20505;-87
2023/04/25 12:31:00;;;;;;;8.70;2.42;;;;;;;;;;5030426;28;20049;-87
2023/04/25 12:33:28;;;;;;;7.97;2.53;;;;;;;;;;5030603;28;20135;-87
2023/04/25 12:35:55;;;;;;;10.75;2.67;;;;;;;;;;5010884;28;20037;-87
2023/04/25 12:38:33;;;;;;;11.50;2.40;;;;;;;;;;5049462;28;20045;-87
2023/04/25 12:40:59;;;;;;;7.22;2.58;;;;;;;;;;5049586;28;20057;-88
2023/04/25 12:43:26;;;;;;;9.13;2.30;;;;;;;;;;5013441;28;20045;-89
2023/04/25 12:45:52;;;;;;;8.98;2.35;;;;;;;;;;5028434;28;20435;-88
2023/04/25 12:48:19;;;;;;;7.85;2.47;;;;;;;;;;5014945;28;20056;-88
2023/04/25 12:50:47;;;;;;;7.10;2.53;;;;;;;;;;5051695;28;20124;-87
2023/04/25 12:53:13;;;;;;;9.57;2.67;;;;;;;;;;5050046;28;20037;-88
2023/04/25 12:55:40;;;;;;;8.02;2.30;;;;;;;;;;5048620;28;20178;-88
2023/04/25 12:58:06;;;;;;;4.93;2.33;;;;;;;;;;5014969;28;20080;-88
2023/04/25 13:00:32;;;;;;;4.85;2.00;;;;;;;;;;5028313;28;20073;-89
2023/04/25 13:02:58;;;;;;;9.63;2.20;;;;;;;;;;5030398;28;20037;-93
2023/04/25 13:05:24;;;;;;;5.45;2.63;;;;;;;;;;5050661;28;20040;-93
2023/04/25 13:07:51;;;;;;;4.53;2.38;;;;;;;;;;5012746;28;20121;-93
2023/04/25 13:10:17;;;;;;;7.63;2.40;;;;;;;;;;5029969;28;20044;-93
2023/04/25 13:12:44;;;;;;;6.03;2.20;;;;;;;;;;5049674;28;20037;-86
2023/04/25 13:15:11;;;;;;;7.95;2.28;;;;;;;;;;5049786;28;20124;-90
2023/04/25 13:17:38;;;;;;;7.28;2.63;;;;;;;;;;5026856;28;20045;-87
2023/04/25 13:20:06;;;;;;;7.68;2.15;;;;;;;;;;5045701;28;20122;-87
2023/04/25 13:22:32;;;;;;;8.52;2.50;;;;;;;;;;5038438;28;20041;-87
2023/04/25 13:24:58;;;;;;;7.38;2.47;;;;;;;;;;5029606;28;20248;-87
2023/04/25 13:27:24;;;;;;;8.02;2.17;;;;;;;;;;5029737;28;20044;-87
2023/04/25 13:29:50;;;;;;;7.40;2.20;;;;;;;;;;5030083;28;20124;-87
2023/04/25 13:32:16;;;;;;;8.45;2.55;;;;;;;;;;5047628;28;20041;-87
2023/04/25 13:34:42;;;;;;;7.43;1.95;;;;;;;;;;5045342;28;20032;-88
2023/04/25 13:37:08;;;;;;;7.05;2.35;;;;;;;;;;5046909;28;20037;-87
2023/04/25 13:39:34;;;;;;;6.43;2.03;;;;;;;;;;5032769;28;20029;-87
2023/04/25 13:42:00;;;;;;;7.43;2.17;;;;;;;;;;5028224;28;20394;-87
2023/04/25 13:44:26;;;;;;;8.75;2.80;;;;;;;;;;5029966;28;20033;-87
2023/04/25 13:46:52;;;;;;;6.18;2.22;;;;;;;;;;5048446;28;20036;-87
2023/04/25 13:49:18;;;;;;;4.35;1.67;;;;;;;;;;5030275;28;20113;-87
2023/04/25 13:51:44;;;;;;;3.88;1.88;;;;;;;;;;5048797;28;20103;-87
2023/04/25 13:54:10;;;;;;;5.20;1.83;;;;;;;;;;5050056;28;20120;-86
2023/04/25 13:56:36;;;;;;;5.55;2.10;;;;;;;;;;5049207;28;20060;-86
2023/04/25 13:59:02;;;;;;;7.78;2.25;;;;;;;;;;5030914;28;20513;-86
2023/04/25 14:01:30;;;;;;;5.40;2.35;;;;;;;;;;5048778;28;20063;-86
2023/04/25 14:03:57;;;;;;;7.78;2.55;;;;;;;;;;5049723;28;20043;-88
2023/04/25 14:06:24;;;;;;;7.07;2.22;;;;;;;;;;5026679;28;20057;-89
2023/04/25 14:08:50;;;;;;;5.90;1.90;;;;;;;;;;5013097;28;20230;-89
2023/04/25 14:11:17;;;;;;;12.73;2.70;;;;;;;;;;5031451;28;20045;-84
2023/04/25 14:13:44;;;;;;;11.98;2.88;;;;;;;;;;5028218;28;20041;-87
2023/04/25 14:16:10;;;;;;;9.68;2.78;;;;;;;;;;5030411;28;20037;-87
2023/04/25 14:18:36;;;;;;;7.22;2.10;;;;;;;;;;5031114;28;20040;-87
2023/04/25 14:21:02;;;;;;;5.45;1.75;;;;;;;;;;5028795;28;20170;-86
2023/04/25 14:23:28;;;;;;;3.22;1.67;;;;;;;;;;5025629;28;20037;-86
2023/04/25 14:25:54;;;;;;;4.72;1.85;;;;;;;;;;5027898;28;20389;-85
2023/04/25 14:28:20;;;;;;;5.28;1.95;;;;;;;;;;5030097;28;20117;-86
2023/04/25 14:30:46;;;;;;;6.28;2.25;;;;;;;;;;5040002;28;20041;-85
2023/04/25 14:33:13;;;;;;;9.30;2.42;;;;;;;;;;5026720;28;20140;-85
2023/04/25 14:35:39;;;;;;;5.75;2.17;;;;;;;;;;5026838;28;20517;-85
2023/04/25 14:38:06;;;;;;;6.22;2.10;;;;;;;;;;5031830;28;20064;-86
2023/04/25 14:40:32;;;;;;;6.82;2.00;;;;;;;;;;5029350;28;20049;-84